createdAt,value
2022-12-14T00:01:37.125Z,16.73
2022-12-14T00:04:04.022Z,19.52
2022-12-14T00:06:35.087Z,16.63
2022-12-14T00:09:04.603Z,22.20
2022-12-14T00:11:33.443Z,16.23
2022-12-14T00:14:03.653Z,20.02
2022-12-14T00:16:33.079Z,19.55
2022-12-14T00:19:04.400Z,17.95
2022-12-14T00:21:31.049Z,17.95
2022-12-14T00:23:59.431Z,19.50
2022-12-14T00:26:28.767Z,19.05
2022-12-14T00:28:55.981Z,19.05
2022-12-14T00:31:24.769Z,16.73
2022-12-14T00:33:52.227Z,17.92
2022-12-14T00:36:19.328Z,18.98
2022-12-14T00:38:46.046Z,18.85
2022-12-14T00:41:12.736Z,21.70
2022-12-14T00:43:40.650Z,18.50
2022-12-14T00:46:07.567Z,21.30
2022-12-14T00:48:36.643Z,17.05
2022-12-14T00:51:03.676Z,19.90
2022-12-14T00:53:30.519Z,19.63
2022-12-14T00:55:57.268Z,17.48
2022-12-14T00:58:25.549Z,18.27
2022-12-14T01:01:19.081Z,16.05
2022-12-14T01:03:46.333Z,18.42
2022-12-14T01:06:18.254Z,16.65
2022-12-14T01:08:44.952Z,16.30
2022-12-14T01:11:12.199Z,16.52
2022-12-14T01:13:39.935Z,16.45
2022-12-14T01:16:14.958Z,18.90
2022-12-14T01:18:45.260Z,17.33
2022-12-14T01:21:14.809Z,17.10
2022-12-14T01:23:42.713Z,18.20
2022-12-14T01:26:12.356Z,17.00
2022-12-14T01:28:39.104Z,14.50
2022-12-14T01:31:11.224Z,16.40
2022-12-14T01:33:38.428Z,17.00
2022-12-14T01:36:10.334Z,15.60
2022-12-14T01:38:37.528Z,16.45
2022-12-14T01:41:08.053Z,18.17
2022-12-14T01:43:51.528Z,15.57
2022-12-14T01:46:42.112Z,15.05
2022-12-14T01:49:55.150Z,15.52
2022-12-14T01:52:30.463Z,16.13
2022-12-14T01:55:01.185Z,14.85
2022-12-14T01:57:38.480Z,17.35
2022-12-14T02:00:09.125Z,16.90
2022-12-14T02:02:53.098Z,16.13
2022-12-14T02:07:50.505Z,15.10
2022-12-14T02:10:17.700Z,16.98
2022-12-14T02:12:50.905Z,16.83
2022-12-14T02:15:18.477Z,15.25
2022-12-14T02:17:48.877Z,20.23
2022-12-14T02:20:16.663Z,15.85
2022-12-14T02:23:07.404Z,17.55
2022-12-14T02:26:05.011Z,16.25
2022-12-14T02:28:45.238Z,15.07
2022-12-14T02:31:18.097Z,16.17
2022-12-14T02:33:54.589Z,14.48
2022-12-14T02:36:31.035Z,16.05
2022-12-14T02:39:15.133Z,14.48
2022-12-14T02:41:58.899Z,15.25
2022-12-14T02:44:47.390Z,13.90
2022-12-14T02:47:51.221Z,15.98
2022-12-14T02:50:43.132Z,14.25
2022-12-14T02:53:22.141Z,15.13
2022-12-14T02:55:51.889Z,14.18
2022-12-14T02:58:37.086Z,15.10
2022-12-14T03:01:04.348Z,14.30
2022-12-14T03:03:31.384Z,16.30
2022-12-14T03:06:04.324Z,15.32
2022-12-14T03:08:35.385Z,13.77
2022-12-14T03:11:06.077Z,17.02
2022-12-14T03:13:49.234Z,15.05
2022-12-14T03:16:22.407Z,18.60
2022-12-14T03:18:58.116Z,14.07
2022-12-14T03:21:32.163Z,14.60
2022-12-14T03:24:02.363Z,14.52
2022-12-14T03:26:47.561Z,15.55
2022-12-14T03:29:25.728Z,17.25
2022-12-14T03:32:05.065Z,15.38
2022-12-14T03:34:36.259Z,15.30
2022-12-14T03:37:12.966Z,18.17
2022-12-14T03:39:41.572Z,18.90
2022-12-14T03:42:30.194Z,13.48
2022-12-14T03:45:18.308Z,12.70
2022-12-14T03:48:11.305Z,15.07
2022-12-14T03:50:55.381Z,13.02
2022-12-14T03:53:45.214Z,16.95
2022-12-14T03:56:28.773Z,18.52
2022-12-14T03:59:21.654Z,16.52
2022-12-14T04:02:10.009Z,16.42
2022-12-14T04:04:51.254Z,13.65
2022-12-14T04:07:33.599Z,14.27
2022-12-14T04:10:26.334Z,14.38
2022-12-14T04:13:18.233Z,14.27
2022-12-14T04:16:22.564Z,15.63
2022-12-14T04:18:59.887Z,12.13
2022-12-14T04:21:35.736Z,14.60
2022-12-14T04:24:42.848Z,14.43
2022-12-14T04:27:22.513Z,13.70
2022-12-14T04:29:58.356Z,15.98
2022-12-14T04:32:36.753Z,15.25
2022-12-14T04:35:09.873Z,19.60
2022-12-14T04:37:39.434Z,20.17
2022-12-14T04:40:14.194Z,13.20
2022-12-14T04:42:49.560Z,16.38
2022-12-14T04:45:23.439Z,17.67
2022-12-14T04:48:14.373Z,15.50
2022-12-14T04:50:47.660Z,15.13
2022-12-14T04:53:21.389Z,15.52
2022-12-14T04:58:36.401Z,18.73
2022-12-14T05:01:20.779Z,15.48
2022-12-14T05:04:12.125Z,15.88
2022-12-14T05:06:57.704Z,19.05
2022-12-14T05:09:38.074Z,16.02
2022-12-14T05:12:26.320Z,16.42
2022-12-14T05:15:07.437Z,16.42
2022-12-14T05:17:39.183Z,16.83
2022-12-14T05:20:12.716Z,17.38
2022-12-14T05:22:40.114Z,16.75
2022-12-14T05:25:07.174Z,21.30
2022-12-14T05:27:33.789Z,19.55
2022-12-14T05:30:00.408Z,19.27
2022-12-14T05:32:29.214Z,22.15
2022-12-14T05:34:55.960Z,17.40
2022-12-14T05:37:22.584Z,18.65
2022-12-14T05:39:49.365Z,19.27
2022-12-14T05:42:16.623Z,19.48
2022-12-14T05:44:45.712Z,16.23
2022-12-14T05:47:15.877Z,30.30
2022-12-14T05:49:42.580Z,20.25
2022-12-14T05:52:09.231Z,19.83
2022-12-14T05:54:36.007Z,20.00
2022-12-14T05:57:06.841Z,20.58
2022-12-14T05:59:33.626Z,21.60
2022-12-14T06:02:02.798Z,21.23
2022-12-14T06:04:29.627Z,16.10
2022-12-14T06:06:58.808Z,20.70
2022-12-14T06:09:25.522Z,18.92
2022-12-14T06:11:52.218Z,19.08
2022-12-14T06:14:19.079Z,27.27
2022-12-14T06:16:46.985Z,20.77
2022-12-14T06:19:14.736Z,20.42
2022-12-14T06:21:42.769Z,19.33
2022-12-14T06:24:14.027Z,20.98
2022-12-14T06:26:44.022Z,19.27
2022-12-14T06:29:16.501Z,21.05
2022-12-14T06:31:43.098Z,17.83
2022-12-14T06:34:12.887Z,30.50
2022-12-14T06:36:42.150Z,22.48
2022-12-14T06:39:15.407Z,25.20
2022-12-14T06:41:42.459Z,26.98
2022-12-14T06:44:13.017Z,23.48
2022-12-14T06:46:41.436Z,27.13
2022-12-14T06:49:11.792Z,62.13
2022-12-14T06:51:40.047Z,37.50
2022-12-14T06:54:07.628Z,25.08
2022-12-14T06:56:36.421Z,28.90
2022-12-14T06:59:03.038Z,29.70
2022-12-14T07:01:30.646Z,33.28
2022-12-14T07:03:59.531Z,32.00
2022-12-14T07:06:28.189Z,27.88
2022-12-14T07:08:59.592Z,25.27
2022-12-14T07:11:28.015Z,24.77
2022-12-14T07:13:55.275Z,27.70
2022-12-14T07:16:26.264Z,27.80
2022-12-14T07:18:56.790Z,29.20
2022-12-14T07:21:24.193Z,26.02
2022-12-14T07:23:54.517Z,24.90
2022-12-14T07:26:28.005Z,33.58
2022-12-14T07:28:55.066Z,25.10
2022-12-14T07:31:23.782Z,33.15
2022-12-14T07:33:54.194Z,30.50
2022-12-14T07:36:22.168Z,25.98
2022-12-14T07:38:50.317Z,32.95
2022-12-14T07:41:22.738Z,30.63
2022-12-14T07:43:51.226Z,34.42
2022-12-14T07:46:21.344Z,30.48
2022-12-14T07:48:59.163Z,38.80
2022-12-14T07:51:30.595Z,30.05
2022-12-14T07:53:58.352Z,33.50
2022-12-14T07:56:31.204Z,29.83
2022-12-14T07:58:59.763Z,32.05
2022-12-14T08:01:29.896Z,32.55
2022-12-14T08:04:05.197Z,30.00
2022-12-14T08:06:32.889Z,33.28
2022-12-14T08:09:02.210Z,33.53
2022-12-14T08:11:33.655Z,30.77
2022-12-14T08:14:06.093Z,34.88
2022-12-14T08:16:33.836Z,33.05
2022-12-14T08:19:03.260Z,34.53
2022-12-14T08:21:30.064Z,29.13
2022-12-14T08:24:01.564Z,34.42
2022-12-14T08:26:34.873Z,43.95
2022-12-14T08:29:02.718Z,34.47
2022-12-14T08:31:30.056Z,39.60
2022-12-14T08:33:58.470Z,34.38
2022-12-14T08:36:27.929Z,36.25
2022-12-14T08:38:58.831Z,38.13
2022-12-14T08:41:26.419Z,36.63
2022-12-14T08:43:58.205Z,40.42
2022-12-14T08:46:29.593Z,36.17
2022-12-14T08:48:57.340Z,39.97
2022-12-14T08:51:25.132Z,39.05
2022-12-14T08:53:52.654Z,39.33
2022-12-14T08:56:26.933Z,37.78
2022-12-14T08:58:53.776Z,38.33
2022-12-14T09:01:31.740Z,42.22
2022-12-14T09:04:08.180Z,35.78
2022-12-14T09:06:40.141Z,33.05
2022-12-14T09:09:13.715Z,32.42
2022-12-14T09:11:43.679Z,36.10
2022-12-14T09:14:10.749Z,36.35
2022-12-14T09:16:37.625Z,36.78
2022-12-14T09:19:04.401Z,37.90
2022-12-14T09:21:31.615Z,43.78
2022-12-14T09:23:59.786Z,40.55
2022-12-14T09:26:27.446Z,33.28
2022-12-14T09:28:56.025Z,39.22
2022-12-14T09:31:25.866Z,37.60
2022-12-14T09:33:53.266Z,40.70
2022-12-14T09:36:24.730Z,37.63
2022-12-14T09:38:55.139Z,37.53
2022-12-14T09:41:30.328Z,38.65
2022-12-14T09:44:10.563Z,43.15
2022-12-14T09:47:09.378Z,43.42
2022-12-14T09:49:57.259Z,40.10
2022-12-14T09:52:42.115Z,36.55
2022-12-14T09:55:22.376Z,35.58
2022-12-14T09:58:12.187Z,34.95
2022-12-14T10:00:49.642Z,33.65
2022-12-14T10:03:44.583Z,41.70
2022-12-14T10:06:49.157Z,37.38
2022-12-14T10:09:39.943Z,33.40
2022-12-14T10:12:12.659Z,42.35
2022-12-14T10:14:54.145Z,37.15
2022-12-14T10:17:59.921Z,38.28
2022-12-14T10:20:48.298Z,31.65
2022-12-14T10:23:23.220Z,34.45
2022-12-14T10:26:00.934Z,36.03
2022-12-14T10:28:42.620Z,39.25
2022-12-14T10:31:16.374Z,38.75
2022-12-14T10:33:45.984Z,47.22
2022-12-14T10:36:24.258Z,41.08
2022-12-14T10:39:01.945Z,39.13
2022-12-14T10:41:41.827Z,41.63
2022-12-14T10:44:59.759Z,37.03
2022-12-14T10:47:42.760Z,36.42
2022-12-14T10:50:41.853Z,40.97
2022-12-14T10:53:17.321Z,43.15
2022-12-14T10:55:45.552Z,41.22
2022-12-14T10:58:12.333Z,41.30
2022-12-14T11:00:41.951Z,39.03
2022-12-14T11:03:16.255Z,38.90
2022-12-14T11:06:02.690Z,42.28
2022-12-14T11:08:49.134Z,41.75
2022-12-14T11:11:20.782Z,44.22
2022-12-14T11:14:06.089Z,45.50
2022-12-14T11:16:38.638Z,48.83
2022-12-14T11:19:15.277Z,42.10
2022-12-14T11:21:41.943Z,42.50
2022-12-14T11:24:25.256Z,43.35
2022-12-14T11:26:57.836Z,46.10
2022-12-14T11:29:39.350Z,45.75
2022-12-14T11:32:07.035Z,45.92
2022-12-14T11:34:38.927Z,48.50
2022-12-14T11:37:13.450Z,46.97
2022-12-14T11:39:45.263Z,43.95
2022-12-14T11:42:20.638Z,43.53
2022-12-14T11:44:49.277Z,43.60
2022-12-14T11:47:19.808Z,39.95
2022-12-14T11:49:49.762Z,42.70
2022-12-14T11:52:23.347Z,37.42
2022-12-14T11:54:54.395Z,42.92
2022-12-14T11:57:25.718Z,38.95
2022-12-14T11:59:55.907Z,38.22
2022-12-14T12:02:30.122Z,39.58
2022-12-14T12:05:11.245Z,43.08
2022-12-14T12:07:58.249Z,47.95
2022-12-14T12:10:50.719Z,38.40
2022-12-14T12:13:22.351Z,41.83
2022-12-14T12:15:53.360Z,39.47
2022-12-14T12:18:40.364Z,47.50
2022-12-14T12:21:14.972Z,38.45
2022-12-14T12:24:02.669Z,40.67
2022-12-14T12:26:34.742Z,43.90
2022-12-14T12:29:10.805Z,45.33
2022-12-14T12:31:56.119Z,41.03
2022-12-14T12:34:29.309Z,36.42
2022-12-14T12:37:25.345Z,44.33
2022-12-14T12:39:52.307Z,45.78
2022-12-14T12:43:00.031Z,44.97
2022-12-14T12:45:36.399Z,52.88
2022-12-14T12:48:12.074Z,40.70
2022-12-14T12:50:49.796Z,45.47
2022-12-14T12:53:22.402Z,47.70
2022-12-14T12:55:57.008Z,48.53
2022-12-14T12:58:31.032Z,42.28
2022-12-14T13:01:05.202Z,37.38
2022-12-14T13:03:42.322Z,47.78
2022-12-14T13:06:27.182Z,48.47
2022-12-14T13:09:01.010Z,47.65
2022-12-14T13:11:36.327Z,43.92
2022-12-14T13:14:19.433Z,50.13
2022-12-14T13:16:47.443Z,46.93
2022-12-14T13:19:50.423Z,46.92
2022-12-14T13:22:30.023Z,60.28
2022-12-14T13:25:00.235Z,40.90
2022-12-14T13:28:02.120Z,45.70
2022-12-14T13:31:07.288Z,43.50
2022-12-14T13:33:52.697Z,47.40
2022-12-14T13:36:40.832Z,40.88
2022-12-14T13:39:10.470Z,45.40
2022-12-14T13:42:05.977Z,45.33
2022-12-14T13:44:51.320Z,41.13
2022-12-14T13:47:23.227Z,43.75
2022-12-14T13:53:01.002Z,45.65
2022-12-14T13:55:46.339Z,42.60
2022-12-14T13:58:41.012Z,50.17
2022-12-14T14:01:48.694Z,51.83
2022-12-14T14:04:21.046Z,55.58
2022-12-14T14:06:51.662Z,50.00
2022-12-14T14:09:28.229Z,56.85
2022-12-14T14:12:26.566Z,49.20
2022-12-14T14:15:02.638Z,49.60
2022-12-14T14:17:48.090Z,52.17
2022-12-14T14:20:38.742Z,54.63
2022-12-14T14:23:16.940Z,48.13
2022-12-14T14:25:51.701Z,52.13
2022-12-14T14:28:23.028Z,47.92
2022-12-14T14:30:53.782Z,48.95
2022-12-14T14:33:46.486Z,46.25
2022-12-14T14:36:37.125Z,56.10
2022-12-14T14:39:55.410Z,51.95
2022-12-14T14:42:26.693Z,43.20
2022-12-14T14:44:57.963Z,46.67
2022-12-14T14:47:32.649Z,49.05
2022-12-14T14:50:08.224Z,50.78
2022-12-14T14:52:43.161Z,49.30
2022-12-14T14:55:52.545Z,65.53
2022-12-14T14:58:30.001Z,69.55
2022-12-14T15:01:08.533Z,41.25
2022-12-14T15:03:53.393Z,40.75
2022-12-14T15:06:39.003Z,49.38
2022-12-14T15:09:20.804Z,49.85
2022-12-14T15:11:49.700Z,47.38
2022-12-14T15:14:48.459Z,43.05
2022-12-14T15:17:16.007Z,52.38
2022-12-14T15:19:51.044Z,47.67
2022-12-14T15:22:21.666Z,41.00
2022-12-14T15:24:51.790Z,46.95
2022-12-14T15:27:20.829Z,48.45
2022-12-14T15:29:49.304Z,47.22
2022-12-14T15:32:18.226Z,45.08
2022-12-14T15:34:56.487Z,43.92
2022-12-14T15:37:42.488Z,41.97
2022-12-14T15:40:16.415Z,42.88
2022-12-14T15:42:54.726Z,45.25
2022-12-14T15:45:34.626Z,42.22
2022-12-14T15:48:23.673Z,45.63
2022-12-14T15:50:56.378Z,44.42
2022-12-14T15:53:37.635Z,45.10
2022-12-14T15:56:22.545Z,41.85
2022-12-14T15:58:53.560Z,48.83
2022-12-14T16:01:34.608Z,49.03
2022-12-14T16:04:07.434Z,44.05
2022-12-14T16:06:40.330Z,46.57
2022-12-14T16:09:26.374Z,43.83
2022-12-14T16:11:56.159Z,44.60
2022-12-14T16:14:28.247Z,45.90
2022-12-14T16:16:57.537Z,43.78
2022-12-14T16:19:31.226Z,45.15
2022-12-14T16:22:24.489Z,45.25
2022-12-14T16:25:07.355Z,45.10
2022-12-14T16:27:38.892Z,41.92
2022-12-14T16:30:32.942Z,43.33
2022-12-14T16:33:21.163Z,44.17
2022-12-14T16:36:08.901Z,39.38
2022-12-14T16:38:41.467Z,40.72
2022-12-14T16:41:10.905Z,41.63
2022-12-14T16:43:42.014Z,43.50
2022-12-14T16:46:13.850Z,44.63
2022-12-14T16:48:50.009Z,42.05
2022-12-14T16:51:44.441Z,40.97
2022-12-14T16:54:27.410Z,39.42
2022-12-14T16:57:25.586Z,39.28
2022-12-14T16:59:58.577Z,40.08
2022-12-14T17:02:44.196Z,39.65
2022-12-14T17:05:17.707Z,42.00
2022-12-14T17:07:47.098Z,39.72
2022-12-14T17:10:25.144Z,39.83
2022-12-14T17:12:57.617Z,46.88
2022-12-14T17:15:26.244Z,40.28
2022-12-14T17:17:55.269Z,40.20
2022-12-14T17:20:36.957Z,38.92
2022-12-14T17:23:06.215Z,39.70
2022-12-14T17:25:35.761Z,45.08
2022-12-14T17:28:02.553Z,40.95
2022-12-14T17:30:29.389Z,44.42
2022-12-14T17:32:57.477Z,42.97
2022-12-14T17:35:31.379Z,44.67
2022-12-14T17:37:58.112Z,42.53
2022-12-14T17:40:24.881Z,35.92
2022-12-14T17:42:53.811Z,43.13
2022-12-14T17:45:26.856Z,41.63
2022-12-14T17:47:56.682Z,33.20
2022-12-14T17:50:23.709Z,42.83
2022-12-14T17:52:53.201Z,45.47
2022-12-14T17:55:22.653Z,48.28
2022-12-14T17:57:50.098Z,43.28
2022-12-14T18:00:46.782Z,39.88
2022-12-14T18:03:15.779Z,38.70
2022-12-14T18:05:49.359Z,47.33
2022-12-14T18:08:17.377Z,41.47
2022-12-14T18:10:45.107Z,46.17
2022-12-14T18:13:13.142Z,43.78
2022-12-14T18:15:45.806Z,39.88
2022-12-14T18:18:20.781Z,39.33
2022-12-14T18:21:00.320Z,42.35
2022-12-14T18:23:27.877Z,45.80
2022-12-14T18:25:57.894Z,44.00
2022-12-14T18:28:24.883Z,45.65
2022-12-14T18:30:56.872Z,43.90
2022-12-14T18:33:27.089Z,44.60
2022-12-14T18:35:58.344Z,44.00
2022-12-14T18:38:25.545Z,47.28
2022-12-14T18:40:54.504Z,42.45
2022-12-14T18:43:24.112Z,42.85
2022-12-14T18:45:53.078Z,46.17
2022-12-14T18:48:20.305Z,39.95
2022-12-14T18:50:49.855Z,43.22
2022-12-14T18:53:18.725Z,44.63
2022-12-14T18:55:48.245Z,42.83
2022-12-14T18:58:20.799Z,42.75
2022-12-14T19:00:50.070Z,42.95
2022-12-14T19:03:20.382Z,42.88
2022-12-14T19:05:49.864Z,40.58
2022-12-14T19:08:18.871Z,42.28
2022-12-14T19:10:48.002Z,48.22
2022-12-14T19:13:26.164Z,36.90
2022-12-14T19:15:54.139Z,44.72
2022-12-14T19:18:20.984Z,41.17
2022-12-14T19:20:50.127Z,41.35
2022-12-14T19:23:19.240Z,44.47
2022-12-14T19:25:46.980Z,44.90
2022-12-14T19:28:31.902Z,45.33
2022-12-14T19:31:02.586Z,44.38
2022-12-14T19:33:30.390Z,42.22
2022-12-14T19:36:00.224Z,45.30
2022-12-14T19:38:28.302Z,40.83
2022-12-14T19:41:00.567Z,45.17
2022-12-14T19:43:29.002Z,44.60
2022-12-14T19:45:56.174Z,43.33
2022-12-14T19:48:24.967Z,53.10
2022-12-14T19:50:51.807Z,49.10
2022-12-14T19:53:23.148Z,47.33
2022-12-14T19:55:52.453Z,47.05
2022-12-14T19:58:21.856Z,47.75
2022-12-14T20:00:49.776Z,53.03
2022-12-14T20:03:16.791Z,50.35
2022-12-14T20:05:54.902Z,43.00
2022-12-14T20:08:22.382Z,52.50
2022-12-14T20:10:49.740Z,52.17
2022-12-14T20:13:18.685Z,47.60
2022-12-14T20:15:58.188Z,54.75
2022-12-14T20:18:29.171Z,49.35
2022-12-14T20:21:04.038Z,50.67
2022-12-14T20:23:32.917Z,48.50
2022-12-14T20:26:01.709Z,49.80
2022-12-14T20:28:33.120Z,46.75
2022-12-14T20:31:00.560Z,46.65
2022-12-14T20:33:30.967Z,45.38
2022-12-14T20:35:57.940Z,45.75
2022-12-14T20:38:24.895Z,46.88
2022-12-14T20:40:51.554Z,48.42
2022-12-14T20:43:18.388Z,44.85
2022-12-14T20:45:47.548Z,51.75
2022-12-14T20:48:14.199Z,47.40
2022-12-14T20:50:43.420Z,47.38
2022-12-14T20:53:10.171Z,43.47
2022-12-14T20:55:36.933Z,47.10
2022-12-14T20:58:03.674Z,45.40
2022-12-14T21:00:30.609Z,45.50
2022-12-14T21:02:57.739Z,46.85
2022-12-14T21:05:27.628Z,45.90
2022-12-14T21:07:56.581Z,46.10
2022-12-14T21:10:23.225Z,49.45
2022-12-14T21:12:52.638Z,43.30
2022-12-14T21:15:19.359Z,45.30
2022-12-14T21:17:47.170Z,45.28
2022-12-14T21:20:16.201Z,44.20
2022-12-14T21:22:42.983Z,42.15
2022-12-14T21:25:09.866Z,42.75
2022-12-14T21:27:39.428Z,45.38
2022-12-14T21:30:11.200Z,47.33
2022-12-14T21:32:38.986Z,43.00
2022-12-14T21:35:06.273Z,52.20
2022-12-14T21:37:32.992Z,48.42
2022-12-14T21:40:03.728Z,47.33
2022-12-14T21:42:32.703Z,46.90
2022-12-14T21:44:59.458Z,53.55
2022-12-14T21:47:29.390Z,49.83
2022-12-14T21:49:56.704Z,54.25
2022-12-14T21:52:28.093Z,48.50
2022-12-14T21:54:55.031Z,51.60
2022-12-14T21:57:42.590Z,48.88
2022-12-14T22:00:11.008Z,52.33
2022-12-14T22:02:37.924Z,43.03
2022-12-14T22:05:07.128Z,41.72
2022-12-14T22:07:36.897Z,46.47
2022-12-14T22:10:04.081Z,42.40
2022-12-14T22:12:30.791Z,46.20
2022-12-14T22:14:57.607Z,43.67
2022-12-14T22:17:24.349Z,43.17
2022-12-14T22:19:52.064Z,43.75
2022-12-14T22:22:18.753Z,43.60
2022-12-14T22:24:48.560Z,45.47
2022-12-14T22:27:18.333Z,45.75
2022-12-14T22:29:45.010Z,42.72
2022-12-14T22:32:14.782Z,38.53
2022-12-14T22:34:41.587Z,41.05
2022-12-14T22:37:14.457Z,49.47
2022-12-14T22:39:43.398Z,45.33
2022-12-14T22:42:10.543Z,40.97
2022-12-14T22:44:37.570Z,41.78
2022-12-14T22:47:04.216Z,45.88
2022-12-14T22:49:30.819Z,43.25
2022-12-14T22:51:59.698Z,42.67
2022-12-14T22:54:27.565Z,45.15
2022-12-14T22:57:02.413Z,39.28
2022-12-14T23:00:04.847Z,44.17
2022-12-14T23:02:31.872Z,43.22
2022-12-14T23:04:59.039Z,47.83
2022-12-14T23:07:28.251Z,43.58
2022-12-14T23:10:13.430Z,43.35
2022-12-14T23:12:59.421Z,44.20
2022-12-14T23:15:44.611Z,42.95
2022-12-14T23:18:30.233Z,40.25
2022-12-14T23:21:15.762Z,44.05
2022-12-14T23:24:03.186Z,44.70
2022-12-14T23:26:49.295Z,44.15
2022-12-14T23:29:34.627Z,50.40
2022-12-14T23:32:20.101Z,50.00
2022-12-14T23:35:05.588Z,44.72
2022-12-14T23:37:50.931Z,50.28
2022-12-14T23:40:36.532Z,45.47
2022-12-14T23:43:28.996Z,39.35
2022-12-14T23:46:14.569Z,40.67
2022-12-14T23:49:00.049Z,47.35
2022-12-14T23:51:45.714Z,43.03
2022-12-14T23:54:31.290Z,46.67
2022-12-14T23:57:17.148Z,48.90
